Time;durP1;ratioP1;P1;durP2;ratioP2;P2;SDS_P1;SDS_P2;PMS_P1;PMS_P2;Temp;Humidity;BMP_temperature;BMP_pressure;BME280_temperature;BME280_humidity;BME280_pressure;Samples;Min_cycle;Max_cycle;Signal;HPM_P1;HPM_P2
2023/08/20 00:01:21;;;;;;;;;3.67;2.33;;;;;;;;5053870;28;51025;-62
2023/08/20 00:03:47;;;;;;;;;2.00;1.00;;;;;;;;5052069;28;51214;-62
2023/08/20 00:06:13;;;;;;;;;2.00;2.00;;;;;;;;5052634;28;50990;-62
2023/08/20 00:08:38;;;;;;;;;3.67;3.00;;;;;;;;5054041;28;50846;-62
2023/08/20 00:11:05;;;;;;;;;3.00;3.00;;;;;;;;5053860;28;51741;-62
2023/08/20 00:13:30;;;;;;;;;3.00;3.00;;;;;;;;5049337;28;51109;-62
2023/08/20 00:15:55;;;;;;;;;2.33;2.33;;;;;;;;5053825;28;51103;-62
2023/08/20 00:18:21;;;;;;;;;3.00;2.00;;;;;;;;5042598;28;50983;-61
2023/08/20 00:20:46;;;;;;;;;2.00;2.00;;;;;;;;5051796;28;51272;-61
2023/08/20 00:23:12;;;;;;;;;2.00;2.00;;;;;;;;5053342;28;50973;-61
2023/08/20 00:25:37;;;;;;;;;3.00;2.00;;;;;;;;5052115;28;51228;-61
2023/08/20 00:28:03;;;;;;;;;3.00;2.00;;;;;;;;5054475;28;52142;-62
2023/08/20 00:30:28;;;;;;;;;3.33;3.00;;;;;;;;5051038;28;52000;-63
2023/08/20 00:32:53;;;;;;;;;3.00;2.00;;;;;;;;5053657;28;51135;-61
2023/08/20 00:35:18;;;;;;;;;4.00;2.33;;;;;;;;5053385;28;50973;-62
2023/08/20 00:37:44;;;;;;;;;1.00;1.00;;;;;;;;5053024;28;51137;-62
2023/08/20 00:40:10;;;;;;;;;2.67;2.67;;;;;;;;5050926;28;51174;-62
2023/08/20 00:42:35;;;;;;;;;3.00;3.00;;;;;;;;5053244;28;51093;-62
2023/08/20 00:45:00;;;;;;;;;2.00;2.00;;;;;;;;5053165;28;51081;-61
2023/08/20 00:47:27;;;;;;;;;3.00;2.00;;;;;;;;5053648;28;50894;-61
2023/08/20 00:49:52;;;;;;;;;2.33;2.00;;;;;;;;5053618;28;52235;-62
2023/08/20 00:52:18;;;;;;;;;2.00;2.00;;;;;;;;5051167;28;51129;-62
2023/08/20 00:54:46;;;;;;;;;3.00;2.00;;;;;;;;5053265;28;51340;-61
2023/08/20 00:57:13;;;;;;;;;2.33;2.33;;;;;;;;5053873;28;50877;-62
2023/08/20 00:59:38;;;;;;;;;5.00;4.00;;;;;;;;5052911;28;52287;-63
2023/08/20 01:02:03;;;;;;;;;1.00;1.00;;;;;;;;5051929;28;51166;-62
2023/08/20 01:04:29;;;;;;;;;2.00;2.00;;;;;;;;5053366;28;51183;-62
2023/08/20 01:07:03;;;;;;;;;2.00;2.00;;;;;;;;5053464;28;51284;-63
2023/08/20 01:09:42;;;;;;;;;4.67;3.00;;;;;;;;5052456;28;50980;-63
2023/08/20 01:12:08;;;;;;;;;3.00;3.00;;;;;;;;5053081;28;51515;-63
2023/08/20 01:14:34;;;;;;;;;4.00;2.67;;;;;;;;5052723;28;50998;-63
2023/08/20 01:16:59;;;;;;;;;1.33;1.33;;;;;;;;5052061;28;51185;-63
2023/08/20 01:19:24;;;;;;;;;2.00;2.00;;;;;;;;5051565;28;54350;-63
2023/08/20 01:22:04;;;;;;;;;3.00;3.00;;;;;;;;5053038;28;50921;-63
2023/08/20 01:24:30;;;;;;;;;3.67;2.33;;;;;;;;5053077;28;50956;-62
2023/08/20 01:27:10;;;;;;;;;2.00;2.00;;;;;;;;5053812;28;51413;-63
2023/08/20 01:29:36;;;;;;;;;3.00;3.00;;;;;;;;5045163;28;52143;-61
2023/08/20 01:32:02;;;;;;;;;2.67;2.67;;;;;;;;5051712;28;51051;-61
2023/08/20 01:34:28;;;;;;;;;4.00;2.67;;;;;;;;5052039;28;51151;-61
2023/08/20 01:36:53;;;;;;;;;4.00;3.00;;;;;;;;5052118;28;51012;-63
2023/08/20 01:39:18;;;;;;;;;4.00;3.00;;;;;;;;5052235;28;52026;-62
2023/08/20 01:41:44;;;;;;;;;3.00;2.00;;;;;;;;5050754;28;50901;-63
2023/08/20 01:44:09;;;;;;;;;1.33;1.33;;;;;;;;5052418;28;51012;-63
2023/08/20 01:46:34;;;;;;;;;3.00;2.00;;;;;;;;5052372;28;51103;-63
2023/08/20 01:48:59;;;;;;;;;2.00;2.00;;;;;;;;5053143;28;52234;-61
2023/08/20 01:51:24;;;;;;;;;4.00;4.00;;;;;;;;5052150;28;51146;-61
2023/08/20 01:53:50;;;;;;;;;2.00;2.00;;;;;;;;5051991;28;51003;-62
2023/08/20 01:56:16;;;;;;;;;2.00;2.00;;;;;;;;5051783;28;51094;-61
2023/08/20 01:58:41;;;;;;;;;2.00;2.00;;;;;;;;5053573;28;51967;-62
2023/08/20 02:01:06;;;;;;;;;3.00;2.00;;;;;;;;5051358;28;51035;-61
2023/08/20 02:03:31;;;;;;;;;1.67;1.67;;;;;;;;5053377;28;51170;-61
2023/08/20 02:05:56;;;;;;;;;2.00;2.00;;;;;;;;5053563;28;51102;-62
2023/08/20 02:08:23;;;;;;;;;1.00;1.00;;;;;;;;5053287;28;51757;-61
2023/08/20 02:10:48;;;;;;;;;3.00;2.00;;;;;;;;5053229;28;50907;-61
2023/08/20 02:13:13;;;;;;;;;3.67;2.00;;;;;;;;5047922;28;50818;-61
2023/08/20 02:15:39;;;;;;;;;2.00;2.00;;;;;;;;5048127;28;51089;-61
2023/08/20 02:18:04;;;;;;;;;2.33;2.33;;;;;;;;5050064;28;53667;-61
2023/08/20 02:20:29;;;;;;;;;2.00;2.00;;;;;;;;5051431;28;51107;-61
2023/08/20 02:22:55;;;;;;;;;3.00;2.00;;;;;;;;5052442;28;51193;-61
2023/08/20 02:25:20;;;;;;;;;7.33;3.67;;;;;;;;5052226;28;51135;-61
2023/08/20 02:27:45;;;;;;;;;3.67;2.00;;;;;;;;5052601;28;51105;-63
2023/08/20 02:30:13;;;;;;;;;1.00;1.00;;;;;;;;5051833;28;51033;-63
2023/08/20 02:32:38;;;;;;;;;2.00;2.00;;;;;;;;5052934;28;51156;-63
2023/08/20 02:35:05;;;;;;;;;2.00;2.00;;;;;;;;5051622;28;52007;-62
2023/08/20 02:37:30;;;;;;;;;3.33;2.00;;;;;;;;5051969;28;51840;-63
2023/08/20 02:39:55;;;;;;;;;3.00;2.00;;;;;;;;5051008;28;51165;-63
2023/08/20 02:42:21;;;;;;;;;5.00;4.00;;;;;;;;5051528;28;51136;-61
2023/08/20 02:44:46;;;;;;;;;3.00;2.00;;;;;;;;5052157;28;51211;-63
2023/08/20 02:47:11;;;;;;;;;2.00;2.00;;;;;;;;5052856;28;52341;-63
2023/08/20 02:49:36;;;;;;;;;3.00;3.00;;;;;;;;5052073;28;51086;-61
2023/08/20 02:52:02;;;;;;;;;2.67;2.00;;;;;;;;5051499;28;51044;-62
2023/08/20 02:54:29;;;;;;;;;3.00;2.67;;;;;;;;5050672;28;51414;-63
2023/08/20 02:56:54;;;;;;;;;2.33;2.33;;;;;;;;5049296;28;51026;-62
2023/08/20 02:59:19;;;;;;;;;3.00;3.00;;;;;;;;5051390;28;50902;-62
2023/08/20 03:01:44;;;;;;;;;3.00;3.00;;;;;;;;5051522;28;50891;-63
2023/08/20 03:04:10;;;;;;;;;5.00;5.00;;;;;;;;5051702;28;50977;-62
2023/08/20 03:06:35;;;;;;;;;2.00;2.00;;;;;;;;5051363;28;51643;-62
2023/08/20 03:09:00;;;;;;;;;3.00;2.00;;;;;;;;5050490;28;51122;-63
2023/08/20 03:11:25;;;;;;;;;2.67;2.00;;;;;;;;5068280;28;51158;-62
2023/08/20 03:13:50;;;;;;;;;2.00;2.00;;;;;;;;5052738;28;50854;-62
2023/08/20 03:16:16;;;;;;;;;2.00;1.00;;;;;;;;5048948;28;53145;-62
2023/08/20 03:18:41;;;;;;;;;2.33;2.00;;;;;;;;5049158;28;50941;-63
2023/08/20 03:21:06;;;;;;;;;2.00;2.00;;;;;;;;5056793;28;51278;-63
2023/08/20 03:23:31;;;;;;;;;3.33;3.33;;;;;;;;5048410;28;51233;-63
2023/08/20 03:26:00;;;;;;;;;2.33;2.33;;;;;;;;5066415;28;53792;-62
2023/08/20 03:28:25;;;;;;;;;2.00;2.00;;;;;;;;5051873;28;51005;-62
2023/08/20 03:30:50;;;;;;;;;2.00;2.00;;;;;;;;5046089;28;51458;-63
2023/08/20 03:33:16;;;;;;;;;4.33;2.67;;;;;;;;5053679;28;51075;-63
2023/08/20 03:35:42;;;;;;;;;4.00;2.00;;;;;;;;5054841;28;52312;-63
2023/08/20 03:38:07;;;;;;;;;3.00;2.67;;;;;;;;5055176;28;51180;-62
2023/08/20 03:40:32;;;;;;;;;2.00;2.00;;;;;;;;5068132;28;51066;-63
2023/08/20 03:42:57;;;;;;;;;4.00;3.00;;;;;;;;5054686;28;51326;-63
2023/08/20 03:45:23;;;;;;;;;3.00;3.00;;;;;;;;5052592;28;52478;-62
2023/08/20 03:47:48;;;;;;;;;3.00;3.00;;;;;;;;5055428;28;50913;-63
2023/08/20 03:50:13;;;;;;;;;2.00;2.00;;;;;;;;5054483;28;51105;-62
2023/08/20 03:52:39;;;;;;;;;3.67;2.00;;;;;;;;5070380;28;51304;-62
2023/08/20 03:55:04;;;;;;;;;2.00;2.00;;;;;;;;5053326;28;52967;-63
2023/08/20 03:57:30;;;;;;;;;3.00;2.33;;;;;;;;5053732;28;50952;-63
2023/08/20 03:59:55;;;;;;;;;3.00;3.00;;;;;;;;5053391;28;50905;-63
2023/08/20 04:02:20;;;;;;;;;2.33;2.33;;;;;;;;5054387;28;52671;-63
2023/08/20 04:04:45;;;;;;;;;3.67;2.00;;;;;;;;5052316;28;51063;-62
2023/08/20 04:07:10;;;;;;;;;4.00;3.33;;;;;;;;5054958;28;50876;-62
2023/08/20 04:09:36;;;;;;;;;3.00;2.00;;;;;;;;5053650;28;50865;-63
2023/08/20 04:12:01;;;;;;;;;2.00;2.00;;;;;;;;5054000;28;51000;-63
2023/08/20 04:14:27;;;;;;;;;3.67;3.67;;;;;;;;5048325;28;52401;-62
2023/08/20 04:16:52;;;;;;;;;2.00;2.00;;;;;;;;5053084;28;50846;-63
2023/08/20 04:19:17;;;;;;;;;3.00;3.00;;;;;;;;5054333;28;50936;-63
2023/08/20 04:21:42;;;;;;;;;3.00;2.33;;;;;;;;5054161;28;51174;-63
2023/08/20 04:24:07;;;;;;;;;2.67;2.67;;;;;;;;5052628;28;53041;-62
2023/08/20 04:26:33;;;;;;;;;4.50;3.00;;;;;;;;5051144;28;51452;-63
2023/08/20 04:28:58;;;;;;;;;3.67;3.67;;;;;;;;5046453;28;51405;-62
2023/08/20 04:31:23;;;;;;;;;3.00;3.00;;;;;;;;5045140;28;51374;-62
2023/08/20 04:33:50;;;;;;;;;3.00;3.00;;;;;;;;5049933;28;52117;-63
2023/08/20 04:36:15;;;;;;;;;3.00;3.00;;;;;;;;5031764;28;51734;-62
2023/08/20 04:38:40;;;;;;;;;3.00;2.00;;;;;;;;5037170;28;51077;-62
2023/08/20 04:41:05;;;;;;;;;3.00;3.00;;;;;;;;5045552;28;51322;-63
2023/08/20 04:43:30;;;;;;;;;2.00;2.00;;;;;;;;5051287;28;51578;-62
2023/08/20 04:45:55;;;;;;;;;4.00;3.33;;;;;;;;5035503;28;51084;-62
2023/08/20 04:48:21;;;;;;;;;2.00;2.00;;;;;;;;5038747;28;51148;-64
2023/08/20 04:50:46;;;;;;;;;6.00;4.00;;;;;;;;5032803;28;51354;-63
2023/08/20 04:53:12;;;;;;;;;4.00;3.00;;;;;;;;5052523;28;51086;-62
2023/08/20 04:55:37;;;;;;;;;1.33;1.33;;;;;;;;5044416;28;52368;-62
2023/08/20 04:58:03;;;;;;;;;4.00;3.00;;;;;;;;5052220;28;51034;-62
2023/08/20 05:00:28;;;;;;;;;3.33;3.00;;;;;;;;5043608;28;51381;-62
2023/08/20 05:02:55;;;;;;;;;3.33;3.33;;;;;;;;5034318;28;51782;-64
2023/08/20 05:05:20;;;;;;;;;3.33;3.33;;;;;;;;5030710;28;51136;-62
2023/08/20 05:07:46;;;;;;;;;9.00;7.00;;;;;;;;5051601;28;51268;-63
2023/08/20 05:10:11;;;;;;;;;4.00;4.00;;;;;;;;5054940;28;51175;-62
2023/08/20 05:12:36;;;;;;;;;2.33;2.00;;;;;;;;5033814;28;50952;-63
2023/08/20 05:15:01;;;;;;;;;4.00;4.00;;;;;;;;5037503;28;50930;-63
2023/08/20 05:17:27;;;;;;;;;1.00;1.00;;;;;;;;5016830;28;51064;-62
2023/08/20 05:19:52;;;;;;;;;2.67;2.67;;;;;;;;5035346;28;51182;-62
2023/08/20 05:22:17;;;;;;;;;3.00;2.67;;;;;;;;5036398;28;51692;-63
2023/08/20 05:24:42;;;;;;;;;3.00;3.00;;;;;;;;5049801;28;51033;-63
2023/08/20 05:27:08;;;;;;;;;3.67;3.00;;;;;;;;5042058;28;50935;-63
2023/08/20 05:29:33;;;;;;;;;3.33;3.00;;;;;;;;5036512;28;51151;-62
2023/08/20 05:31:59;;;;;;;;;4.00;4.00;;;;;;;;5031212;28;52022;-62
2023/08/20 05:34:24;;;;;;;;;4.00;3.00;;;;;;;;5035546;28;51182;-63
2023/08/20 05:36:49;;;;;;;;;3.33;3.33;;;;;;;;5036737;28;51198;-62
2023/08/20 05:39:14;;;;;;;;;4.00;4.00;;;;;;;;5048970;28;51305;-63
2023/08/20 05:41:39;;;;;;;;;3.33;3.00;;;;;;;;5040268;28;52155;-63
2023/08/20 05:44:04;;;;;;;;;3.00;3.00;;;;;;;;5045579;28;50996;-63
2023/08/20 05:46:30;;;;;;;;;4.33;4.33;;;;;;;;5051214;28;51381;-63
2023/08/20 05:48:55;;;;;;;;;5.00;4.00;;;;;;;;5035912;28;51062;-63
2023/08/20 05:51:20;;;;;;;;;4.67;4.67;;;;;;;;5049128;28;52072;-63
2023/08/20 05:53:45;;;;;;;;;3.33;3.33;;;;;;;;5050200;28;50963;-63
2023/08/20 05:56:10;;;;;;;;;4.00;3.00;;;;;;;;5041736;28;51224;-63
2023/08/20 05:58:36;;;;;;;;;4.00;4.00;;;;;;;;5043102;28;50900;-63
2023/08/20 06:01:01;;;;;;;;;3.00;3.00;;;;;;;;5030070;28;51773;-63
2023/08/20 06:03:26;;;;;;;;;3.33;3.00;;;;;;;;5035184;28;51593;-63
2023/08/20 06:05:51;;;;;;;;;3.00;3.00;;;;;;;;5040183;28;51313;-63
2023/08/20 06:08:16;;;;;;;;;3.00;3.00;;;;;;;;5031536;28;51118;-63
2023/08/20 06:10:42;;;;;;;;;3.00;3.00;;;;;;;;5030776;28;51067;-64
2023/08/20 06:13:07;;;;;;;;;3.00;3.00;;;;;;;;5030787;28;51136;-63
2023/08/20 06:15:32;;;;;;;;;3.00;3.00;;;;;;;;5031823;28;51176;-63
2023/08/20 06:17:57;;;;;;;;;3.33;3.33;;;;;;;;5031341;28;51098;-63
2023/08/20 06:20:23;;;;;;;;;4.00;3.00;;;;;;;;5034141;28;51893;-63
2023/08/20 06:22:48;;;;;;;;;4.33;4.00;;;;;;;;5041386;28;51059;-62
2023/08/20 06:25:13;;;;;;;;;4.00;3.00;;;;;;;;5043676;28;51622;-62
2023/08/20 06:27:38;;;;;;;;;5.00;4.00;;;;;;;;5037620;28;51027;-62
2023/08/20 06:30:03;;;;;;;;;4.00;3.00;;;;;;;;5051734;28;51956;-63
2023/08/20 06:32:29;;;;;;;;;4.00;4.00;;;;;;;;5052895;28;50854;-62
2023/08/20 06:34:57;;;;;;;;;3.33;3.33;;;;;;;;5054019;28;50897;-63
2023/08/20 06:37:22;;;;;;;;;2.67;2.67;;;;;;;;5052113;28;51916;-62
2023/08/20 06:39:47;;;;;;;;;5.00;4.00;;;;;;;;5051526;28;51098;-62
2023/08/20 06:42:13;;;;;;;;;3.00;3.00;;;;;;;;5051174;28;51262;-63
2023/08/20 06:44:38;;;;;;;;;4.00;4.00;;;;;;;;5049390;28;51198;-62
2023/08/20 06:47:03;;;;;;;;;4.00;4.00;;;;;;;;5052220;28;52654;-62
2023/08/20 06:49:28;;;;;;;;;4.67;3.33;;;;;;;;5051716;28;51861;-63
2023/08/20 06:51:54;;;;;;;;;6.67;5.67;;;;;;;;5044886;28;50980;-62
2023/08/20 06:54:19;;;;;;;;;5.00;5.00;;;;;;;;5051607;28;51056;-63
2023/08/20 06:56:44;;;;;;;;;4.00;4.00;;;;;;;;5051341;28;50961;-63
2023/08/20 06:59:10;;;;;;;;;4.00;4.00;;;;;;;;5046110;28;51995;-62
2023/08/20 07:01:35;;;;;;;;;3.00;3.00;;;;;;;;5043565;28;51102;-62
2023/08/20 07:04:01;;;;;;;;;4.33;4.00;;;;;;;;5051482;28;51347;-63
2023/08/20 07:06:26;;;;;;;;;4.33;4.00;;;;;;;;5051865;28;51288;-62
2023/08/20 07:08:51;;;;;;;;;4.33;4.00;;;;;;;;5054575;28;52123;-62
2023/08/20 07:11:16;;;;;;;;;4.00;4.00;;;;;;;;5054532;28;52176;-63
2023/08/20 07:13:41;;;;;;;;;4.00;3.67;;;;;;;;5055850;28;51424;-63
2023/08/20 07:16:06;;;;;;;;;5.33;4.33;;;;;;;;5052659;28;51284;-63
2023/08/20 07:18:32;;;;;;;;;5.67;5.67;;;;;;;;5053428;28;51849;-62
2023/08/20 07:20:57;;;;;;;;;4.33;4.00;;;;;;;;5053093;28;51033;-63
2023/08/20 07:23:22;;;;;;;;;3.00;3.00;;;;;;;;5065559;28;51263;-63
2023/08/20 07:25:48;;;;;;;;;3.33;3.33;;;;;;;;5050287;28;51183;-62
2023/08/20 07:28:14;;;;;;;;;3.67;2.33;;;;;;;;5054344;28;51790;-62
2023/08/20 07:30:39;;;;;;;;;2.00;1.67;;;;;;;;5053201;28;51135;-63
2023/08/20 07:33:05;;;;;;;;;3.33;2.67;;;;;;;;5055279;28;51076;-62
2023/08/20 07:35:30;;;;;;;;;2.33;2.00;;;;;;;;5069382;28;51147;-63
2023/08/20 07:37:56;;;;;;;;;3.33;2.67;;;;;;;;5053236;28;51767;-62
2023/08/20 07:40:21;;;;;;;;;3.00;3.00;;;;;;;;5052944;28;53010;-62
2023/08/20 07:42:46;;;;;;;;;5.67;3.00;;;;;;;;5052894;28;50905;-63
2023/08/20 07:45:12;;;;;;;;;4.67;4.00;;;;;;;;5053286;28;50931;-63
2023/08/20 07:47:37;;;;;;;;;3.00;3.00;;;;;;;;5054613;28;52559;-62
2023/08/20 07:50:03;;;;;;;;;3.33;3.33;;;;;;;;5053867;28;51174;-62
2023/08/20 07:52:28;;;;;;;;;3.00;3.00;;;;;;;;5049219;28;51342;-61
2023/08/20 07:54:53;;;;;;;;;3.00;3.00;;;;;;;;5052649;28;51126;-62
2023/08/20 07:57:19;;;;;;;;;4.33;3.00;;;;;;;;5054286;28;51137;-62
2023/08/20 07:59:44;;;;;;;;;2.33;2.33;;;;;;;;5054148;28;51325;-61
2023/08/20 08:02:09;;;;;;;;;4.00;4.00;;;;;;;;5055257;28;51298;-62
2023/08/20 08:04:35;;;;;;;;;3.67;3.33;;;;;;;;5055133;28;50993;-62
2023/08/20 08:07:00;;;;;;;;;3.33;3.33;;;;;;;;5054775;28;51131;-62
2023/08/20 08:09:30;;;;;;;;;3.00;2.00;;;;;;;;5054893;28;50943;-62
2023/08/20 08:11:55;;;;;;;;;3.00;3.00;;;;;;;;5048986;28;51308;-61
2023/08/20 08:14:20;;;;;;;;;3.67;2.00;;;;;;;;5054407;28;50909;-61
2023/08/20 08:16:46;;;;;;;;;4.00;4.00;;;;;;;;5053947;28;51903;-60
2023/08/20 08:19:12;;;;;;;;;3.00;3.00;;;;;;;;5054820;28;50839;-61
2023/08/20 08:21:37;;;;;;;;;3.00;3.00;;;;;;;;5055212;28;50836;-61
2023/08/20 08:24:02;;;;;;;;;4.00;4.00;;;;;;;;5055071;28;50803;-62
2023/08/20 08:26:28;;;;;;;;;5.00;4.00;;;;;;;;5055003;28;50930;-62
2023/08/20 08:28:53;;;;;;;;;5.67;5.67;;;;;;;;5054553;28;51237;-61
2023/08/20 08:31:18;;;;;;;;;4.00;4.00;;;;;;;;5054848;28;51170;-62
2023/08/20 08:33:43;;;;;;;;;3.00;3.00;;;;;;;;5054631;28;51178;-62
2023/08/20 08:36:09;;;;;;;;;3.33;3.33;;;;;;;;5054454;28;51987;-62
2023/08/20 08:38:36;;;;;;;;;4.33;3.67;;;;;;;;5054294;28;50968;-62
2023/08/20 08:41:02;;;;;;;;;4.67;4.67;;;;;;;;5054579;28;51164;-61
2023/08/20 08:43:27;;;;;;;;;5.00;4.67;;;;;;;;5054393;28;50977;-61
2023/08/20 08:45:55;;;;;;;;;4.33;4.33;;;;;;;;5054145;28;51063;-62
2023/08/20 08:48:20;;;;;;;;;5.67;5.00;;;;;;;;5054161;28;51138;-62
2023/08/20 08:50:46;;;;;;;;;3.33;3.33;;;;;;;;5054072;28;51095;-62
2023/08/20 08:53:12;;;;;;;;;5.33;3.67;;;;;;;;5054056;28;50850;-61
2023/08/20 08:55:37;;;;;;;;;5.67;5.33;;;;;;;;5052761;28;53985;-61
2023/08/20 08:58:03;;;;;;;;;5.33;4.67;;;;;;;;5053963;28;51058;-62
2023/08/20 09:00:31;;;;;;;;;3.67;3.33;;;;;;;;5069637;28;51066;-62
2023/08/20 09:02:56;;;;;;;;;3.00;3.00;;;;;;;;5052303;28;50970;-61
2023/08/20 09:05:21;;;;;;;;;4.33;3.67;;;;;;;;5049796;28;51101;-63
2023/08/20 09:07:46;;;;;;;;;5.33;5.00;;;;;;;;5058953;28;51332;-62
2023/08/20 09:10:11;;;;;;;;;5.67;5.67;;;;;;;;5054056;28;51110;-62
2023/08/20 09:12:37;;;;;;;;;3.00;3.00;;;;;;;;5054128;28;51115;-63
2023/08/20 09:15:02;;;;;;;;;4.33;4.00;;;;;;;;5053284;28;51798;-63
2023/08/20 09:17:28;;;;;;;;;3.67;3.67;;;;;;;;5048615;28;51100;-63
2023/08/20 09:19:54;;;;;;;;;5.00;4.00;;;;;;;;5051014;28;51124;-62
2023/08/20 09:22:20;;;;;;;;;5.00;4.67;;;;;;;;5051665;28;50857;-63
2023/08/20 09:24:46;;;;;;;;;3.33;3.00;;;;;;;;5051673;28;53966;-62
2023/08/20 09:27:12;;;;;;;;;5.00;4.00;;;;;;;;5052782;28;51080;-63
2023/08/20 09:30:07;;;;;;;;;6.33;5.33;;;;;;;;5051998;28;50962;-63
2023/08/20 09:32:32;;;;;;;;;4.00;4.00;;;;;;;;5048366;28;51681;-62
2023/08/20 09:34:57;;;;;;;;;5.00;5.00;;;;;;;;5050446;28;51281;-62
2023/08/20 09:37:23;;;;;;;;;4.67;4.00;;;;;;;;5050722;28;50846;-62
2023/08/20 09:39:48;;;;;;;;;6.00;4.33;;;;;;;;5052923;28;51110;-62
2023/08/20 09:42:14;;;;;;;;;3.67;3.67;;;;;;;;5049818;28;51286;-62
2023/08/20 09:44:40;;;;;;;;;6.33;5.33;;;;;;;;5051097;28;51954;-62
2023/08/20 09:47:10;;;;;;;;;5.33;5.33;;;;;;;;5052066;28;51062;-61
2023/08/20 09:49:45;;;;;;;;;5.33;5.33;;;;;;;;5049930;28;50958;-61
2023/08/20 09:52:12;;;;;;;;;2.00;2.00;;;;;;;;5052202;28;51091;-61
2023/08/20 09:54:54;;;;;;;;;2.67;2.67;;;;;;;;5047931;28;52180;-61
2023/08/20 09:57:27;;;;;;;;;3.67;3.00;;;;;;;;5052342;28;50922;-62
2023/08/20 09:59:52;;;;;;;;;3.67;3.00;;;;;;;;5052496;28;50912;-62
2023/08/20 10:02:19;;;;;;;;;4.67;4.67;;;;;;;;5052655;28;50855;-62
2023/08/20 10:04:44;;;;;;;;;7.00;5.00;;;;;;;;5052187;28;51906;-62
2023/08/20 10:07:10;;;;;;;;;55.25;44.25;;;;;;;;5040745;28;51072;-62
2023/08/20 10:09:35;;;;;;;;;4.33;4.00;;;;;;;;5052727;28;50999;-62
2023/08/20 10:12:01;;;;;;;;;6.33;5.67;;;;;;;;5050417;28;51209;-61
2023/08/20 10:14:26;;;;;;;;;5.00;5.00;;;;;;;;5044649;28;51782;-61
2023/08/20 10:16:53;;;;;;;;;4.00;4.00;;;;;;;;5049886;28;51335;-61
2023/08/20 10:19:19;;;;;;;;;5.00;4.33;;;;;;;;5050974;28;51067;-62
2023/08/20 10:21:49;;;;;;;;;6.00;5.00;;;;;;;;5049736;28;51024;-61
2023/08/20 10:24:20;;;;;;;;;4.00;4.00;;;;;;;;5046476;28;51712;-62
2023/08/20 10:26:47;;;;;;;;;4.00;4.00;;;;;;;;5045336;28;51071;-61
2023/08/20 10:29:31;;;;;;;;;4.00;4.00;;;;;;;;5051669;28;51004;-61
2023/08/20 10:31:56;;;;;;;;;4.33;4.33;;;;;;;;5052586;28;50942;-62
2023/08/20 10:34:32;;;;;;;;;4.00;3.67;;;;;;;;5051797;28;51164;-61
2023/08/20 10:36:57;;;;;;;;;4.33;4.00;;;;;;;;5067636;28;51102;-62
2023/08/20 10:39:24;;;;;;;;;4.67;4.67;;;;;;;;5051260;28;50914;-63
2023/08/20 10:42:07;;;;;;;;;5.00;5.00;;;;;;;;5052316;28;51112;-63
2023/08/20 10:44:53;;;;;;;;;6.00;6.00;;;;;;;;5051658;28;51043;-62
2023/08/20 10:47:18;;;;;;;;;6.00;6.00;;;;;;;;5047784;28;50964;-63
2023/08/20 11:04:20;;;;;;;;;5.00;3.00;;;;;;;;5066313;27;51106;-59
2023/08/20 11:06:45;;;;;;;;;4.00;4.00;;;;;;;;5050157;28;51051;-59
2023/08/20 11:09:11;;;;;;;;;4.67;4.67;;;;;;;;5046081;28;51098;-59
2023/08/20 11:11:37;;;;;;;;;5.00;5.00;;;;;;;;5046125;28;52009;-60
2023/08/20 11:14:07;;;;;;;;;3.67;3.67;;;;;;;;5048378;28;51119;-59
2023/08/20 11:16:33;;;;;;;;;5.00;5.00;;;;;;;;5048190;28;50987;-60
2023/08/20 11:18:58;;;;;;;;;4.00;4.00;;;;;;;;5048804;28;51186;-60
2023/08/20 11:21:23;;;;;;;;;4.33;4.00;;;;;;;;5048191;28;52113;-60
2023/08/20 11:23:48;;;;;;;;;3.00;3.00;;;;;;;;5055011;28;51044;-58
2023/08/20 11:26:14;;;;;;;;;3.67;3.67;;;;;;;;5048099;28;51403;-59
2023/08/20 11:28:44;;;;;;;;;3.33;3.00;;;;;;;;5048360;28;51179;-59
2023/08/20 11:31:09;;;;;;;;;4.00;4.00;;;;;;;;5047584;28;52209;-60
2023/08/20 11:33:35;;;;;;;;;3.00;3.00;;;;;;;;5046844;28;51291;-60
2023/08/20 11:36:00;;;;;;;;;4.67;3.00;;;;;;;;5043507;28;51230;-60
2023/08/20 11:38:26;;;;;;;;;2.67;2.67;;;;;;;;5046245;28;51748;-60
2023/08/20 11:40:52;;;;;;;;;4.00;4.00;;;;;;;;5036797;28;53430;-60
2023/08/20 11:43:17;;;;;;;;;3.00;3.00;;;;;;;;5042569;28;51048;-59
2023/08/20 11:45:46;;;;;;;;;4.00;4.00;;;;;;;;5042571;28;51204;-59
2023/08/20 11:48:12;;;;;;;;;3.00;3.00;;;;;;;;5040048;28;51265;-59
2023/08/20 11:50:37;;;;;;;;;3.00;3.00;;;;;;;;5045596;28;51776;-59
2023/08/20 11:53:03;;;;;;;;;4.67;4.67;;;;;;;;5035775;28;51092;-59
2023/08/20 11:55:29;;;;;;;;;4.33;4.00;;;;;;;;5037781;28;51162;-59
2023/08/20 11:57:54;;;;;;;;;3.67;3.67;;;;;;;;5047805;28;50792;-59
2023/08/20 12:00:26;;;;;;;;;3.67;3.33;;;;;;;;5046940;28;52149;-59
2023/08/20 12:02:52;;;;;;;;;4.00;3.00;;;;;;;;5056129;28;51016;-59
2023/08/20 12:05:19;;;;;;;;;5.00;4.00;;;;;;;;5067543;28;51157;-59
2023/08/20 12:07:54;;;;;;;;;3.00;3.00;;;;;;;;5067939;28;50918;-59
2023/08/20 12:10:21;;;;;;;;;5.67;5.00;;;;;;;;5067787;28;50874;-59
2023/08/20 12:12:47;;;;;;;;;5.00;5.00;;;;;;;;5067467;28;51127;-59
2023/08/20 12:15:12;;;;;;;;;4.67;4.67;;;;;;;;5046608;27;51467;-59
2023/08/20 12:17:38;;;;;;;;;4.00;4.00;;;;;;;;5042195;28;51649;-59
2023/08/20 12:20:12;;;;;;;;;2.67;2.67;;;;;;;;5051035;28;51902;-60
2023/08/20 12:22:37;;;;;;;;;213.50;198.75;;;;;;;;5049103;28;50860;-61
2023/08/20 12:25:02;;;;;;;;;5.00;4.00;;;;;;;;5054181;28;51984;-60
2023/08/20 12:27:28;;;;;;;;;3.67;3.67;;;;;;;;5054207;28;51063;-60
2023/08/20 12:29:53;;;;;;;;;3.00;3.00;;;;;;;;5053425;28;51711;-60
2023/08/20 12:32:18;;;;;;;;;3.00;3.00;;;;;;;;5052041;28;51096;-60
2023/08/20 12:34:43;;;;;;;;;3.33;3.33;;;;;;;;5051572;28;51273;-60
2023/08/20 12:37:09;;;;;;;;;5.00;4.00;;;;;;;;5049025;28;50830;-60
2023/08/20 12:39:34;;;;;;;;;4.00;3.33;;;;;;;;5043181;28;51080;-60
2023/08/20 12:41:59;;;;;;;;;4.67;4.00;;;;;;;;5035838;28;51112;-60
2023/08/20 12:44:24;;;;;;;;;2.67;2.67;;;;;;;;5053962;28;51185;-60
2023/08/20 12:46:51;;;;;;;;;2.00;2.00;;;;;;;;5046152;28;51334;-60
2023/08/20 12:49:16;;;;;;;;;4.33;3.33;;;;;;;;5052341;28;51974;-60
2023/08/20 12:51:42;;;;;;;;;3.00;3.00;;;;;;;;5053440;28;51080;-59
2023/08/20 12:54:07;;;;;;;;;3.33;3.33;;;;;;;;5049219;28;51234;-61
2023/08/20 12:56:32;;;;;;;;;2.67;2.67;;;;;;;;5051353;28;51286;-61
2023/08/20 12:58:57;;;;;;;;;3.67;3.67;;;;;;;;5052390;28;51890;-61
2023/08/20 13:01:23;;;;;;;;;5.67;5.33;;;;;;;;5052643;28;51378;-61
2023/08/20 13:03:48;;;;;;;;;2.67;2.67;;;;;;;;5049794;28;51100;-61
2023/08/20 13:06:13;;;;;;;;;4.00;4.00;;;;;;;;5052888;28;51326;-60
2023/08/20 13:08:39;;;;;;;;;3.33;3.00;;;;;;;;5049495;28;51623;-61
2023/08/20 13:11:06;;;;;;;;;5.00;4.00;;;;;;;;5052005;28;51170;-61
2023/08/20 13:13:32;;;;;;;;;7.00;7.00;;;;;;;;5052222;28;50872;-61
2023/08/20 13:15:57;;;;;;;;;3.00;3.00;;;;;;;;5048983;28;51145;-61
2023/08/20 13:18:25;;;;;;;;;2.00;2.00;;;;;;;;5050579;28;51111;-61
2023/08/20 13:20:54;;;;;;;;;2.67;2.67;;;;;;;;5050082;28;51024;-61
2023/08/20 13:23:19;;;;;;;;;3.67;3.67;;;;;;;;5052981;28;52072;-61
2023/08/20 13:25:44;;;;;;;;;2.67;2.67;;;;;;;;5049963;28;51237;-61
2023/08/20 13:28:09;;;;;;;;;4.00;3.67;;;;;;;;5053034;28;50963;-61
2023/08/20 13:30:35;;;;;;;;;3.00;3.00;;;;;;;;5053390;28;51004;-60
2023/08/20 13:33:00;;;;;;;;;3.33;3.00;;;;;;;;5051781;28;51347;-60
2023/08/20 13:35:26;;;;;;;;;4.00;3.00;;;;;;;;5051986;28;51884;-60
2023/08/20 13:37:52;;;;;;;;;4.00;3.00;;;;;;;;5048143;28;51298;-61
2023/08/20 13:40:18;;;;;;;;;3.00;3.00;;;;;;;;5035967;28;52393;-61
2023/08/20 13:42:43;;;;;;;;;2.67;2.00;;;;;;;;5037499;28;51559;-62
2023/08/20 13:45:08;;;;;;;;;3.33;3.00;;;;;;;;5034478;28;51441;-61
2023/08/20 13:47:33;;;;;;;;;4.67;4.00;;;;;;;;5036591;28;52197;-60
2023/08/20 13:49:59;;;;;;;;;2.00;2.00;;;;;;;;5037246;28;51526;-60
2023/08/20 13:52:24;;;;;;;;;3.00;3.00;;;;;;;;5037874;28;51369;-60
2023/08/20 13:54:50;;;;;;;;;4.00;4.00;;;;;;;;5048105;28;51169;-60
2023/08/20 13:57:15;;;;;;;;;5.33;5.00;;;;;;;;5052999;28;51152;-59
2023/08/20 13:59:41;;;;;;;;;5.00;5.00;;;;;;;;5050403;28;51201;-60
2023/08/20 14:02:06;;;;;;;;;3.67;3.67;;;;;;;;5052695;28;51687;-59
2023/08/20 14:04:31;;;;;;;;;5.00;5.00;;;;;;;;5051314;28;51058;-61
2023/08/20 14:06:56;;;;;;;;;3.00;2.00;;;;;;;;5043305;28;52010;-60
2023/08/20 14:09:21;;;;;;;;;2.67;2.67;;;;;;;;5046632;28;51917;-60
2023/08/20 14:11:47;;;;;;;;;2.33;2.00;;;;;;;;5044936;28;51134;-60
2023/08/20 14:14:12;;;;;;;;;3.00;3.00;;;;;;;;5044230;28;51048;-60
2023/08/20 14:16:37;;;;;;;;;4.00;4.00;;;;;;;;5045148;28;52239;-60
2023/08/20 14:19:02;;;;;;;;;2.67;2.67;;;;;;;;5052154;28;51073;-60
2023/08/20 14:21:28;;;;;;;;;3.67;3.67;;;;;;;;5052138;28;50951;-59
2023/08/20 14:23:53;;;;;;;;;2.33;2.00;;;;;;;;5052403;28;51121;-60
2023/08/20 14:26:18;;;;;;;;;3.00;2.00;;;;;;;;5052314;28;50973;-60
2023/08/20 14:28:44;;;;;;;;;2.67;2.67;;;;;;;;5052397;28;51005;-61
2023/08/20 14:31:09;;;;;;;;;3.00;2.67;;;;;;;;5052335;28;50997;-60
2023/08/20 14:33:34;;;;;;;;;2.00;2.00;;;;;;;;5052263;28;50912;-60
2023/08/20 14:35:59;;;;;;;;;1.33;1.33;;;;;;;;5051840;28;51051;-59
2023/08/20 14:38:25;;;;;;;;;2.00;2.00;;;;;;;;5051542;28;50834;-59
2023/08/20 14:40:50;;;;;;;;;3.00;1.33;;;;;;;;5051560;28;50977;-60
2023/08/20 14:43:16;;;;;;;;;2.00;2.00;;;;;;;;5052308;28;50839;-61
2023/08/20 14:45:41;;;;;;;;;1.67;1.67;;;;;;;;5051604;28;50830;-61
2023/08/20 14:48:06;;;;;;;;;3.00;2.67;;;;;;;;5052048;28;50901;-62
2023/08/20 14:50:32;;;;;;;;;2.00;2.00;;;;;;;;5052263;28;51181;-60